Time;durP1;ratioP1;P1;durP2;ratioP2;P2;SDS_P1;SDS_P2;PMS_P1;PMS_P2;Temp;Humidity;BMP_temperature;BMP_pressure;BME280_temperature;BME280_humidity;BME280_pressure;Samples;Min_cycle;Max_cycle;Signal;HPM_P1;HPM_P2
2023/04/29 00:01:13;;;;;;;7.87;7.17;;;14.30;99.90;;;;;;5053166;28;20442;-48
2023/04/29 00:03:41;;;;;;;8.37;7.50;;;14.20;99.90;;;;;;5053794;28;20805;-49
2023/04/29 00:06:07;;;;;;;8.47;7.67;;;14.40;99.90;;;;;;5053353;28;20480;-49
2023/04/29 00:08:34;;;;;;;7.60;6.87;;;14.80;99.90;;;;;;5053097;28;20405;-47
2023/04/29 00:11:02;;;;;;;9.07;7.80;;;14.50;99.90;;;;;;5053245;28;20438;-49
2023/04/29 00:13:28;;;;;;;10.30;7.90;;;14.60;99.90;;;;;;5053199;28;20486;-49
2023/04/29 00:15:55;;;;;;;12.47;8.60;;;14.30;99.90;;;;;;5053118;28;20806;-48
2023/04/29 00:18:22;;;;;;;8.73;7.80;;;14.20;99.90;;;;;;5051330;28;20466;-49
2023/04/29 00:20:49;;;;;;;9.83;8.07;;;14.10;99.90;;;;;;5052953;28;20434;-50
2023/04/29 00:23:15;;;;;;;8.77;7.93;;;13.80;99.90;;;;;;5053096;28;20450;-50
2023/04/29 00:25:42;;;;;;;8.53;7.67;;;14.80;99.90;;;;;;5052964;28;20485;-49
2023/04/29 00:28:10;;;;;;;9.37;8.47;;;14.20;99.90;;;;;;5052645;28;20409;-49
2023/04/29 00:30:37;;;;;;;10.17;9.27;;;14.70;99.90;;;;;;5052721;28;20435;-49
2023/04/29 00:33:03;;;;;;;7.67;6.90;;;14.20;99.90;;;;;;5051553;28;20462;-49
2023/04/29 00:35:30;;;;;;;7.60;6.80;;;14.10;99.90;;;;;;5051851;28;20452;-50
2023/04/29 00:37:57;;;;;;;8.17;7.20;;;14.40;99.90;;;;;;5052998;28;20426;-50
2023/04/29 00:40:23;;;;;;;9.47;8.47;;;14.70;99.90;;;;;;5051684;28;20453;-50
2023/04/29 00:42:50;;;;;;;8.53;7.67;;;14.20;99.90;;;;;;5053064;28;20519;-49
2023/04/29 00:45:18;;;;;;;9.90;8.90;;;14.70;99.90;;;;;;5052757;28;20474;-49
2023/04/29 00:47:45;;;;;;;9.20;8.27;;;14.00;99.90;;;;;;5052672;28;20442;-49
2023/04/29 00:50:12;;;;;;;9.60;7.83;;;14.00;99.90;;;;;;5052333;28;20526;-49
2023/04/29 00:52:39;;;;;;;8.47;7.67;;;14.10;99.90;;;;;;5052299;28;20448;-49
2023/04/29 00:55:07;;;;;;;8.60;7.80;;;14.60;99.90;;;;;;5052568;28;20452;-49
2023/04/29 00:57:34;;;;;;;8.83;7.93;;;14.20;99.90;;;;;;5051257;28;20949;-50
2023/04/29 01:00:01;;;;;;;8.50;7.60;;;14.20;99.90;;;;;;5050834;28;20821;-49
2023/04/29 01:02:29;;;;;;;15.03;9.00;;;14.60;99.90;;;;;;5052125;28;20454;-49
2023/04/29 01:04:56;;;;;;;12.80;8.97;;;14.20;99.90;;;;;;5050966;28;20812;-49
2023/04/29 01:07:29;;;;;;;8.80;7.83;;;14.20;99.90;;;;;;5051091;28;20446;-50
2023/04/29 01:10:04;;;;;;;9.27;8.30;;;14.40;99.90;;;;;;5050854;28;20795;-49
2023/04/29 01:12:38;;;;;;;8.83;8.03;;;14.20;99.90;;;;;;5050985;28;20524;-49
2023/04/29 01:15:17;;;;;;;10.50;9.10;;;14.40;99.90;;;;;;5050985;28;20449;-49
2023/04/29 01:17:50;;;;;;;13.70;8.37;;;14.40;99.90;;;;;;5050627;28;20466;-50
2023/04/29 01:20:20;;;;;;;13.07;9.23;;;14.20;99.90;;;;;;5050651;28;20458;-49
2023/04/29 01:22:47;;;;;;;11.10;9.90;;;14.30;99.90;;;;;;5051024;28;20463;-49
2023/04/29 01:25:16;;;;;;;14.57;9.33;;;14.00;99.90;;;;;;5050761;28;20482;-49
2023/04/29 01:28:24;;;;;;;13.30;10.07;;;14.10;99.90;;;;;;5051723;28;20933;-49
2023/04/29 01:31:00;;;;;;;15.77;10.67;;;14.10;99.90;;;;;;5050721;28;20453;-49
2023/04/29 01:33:36;;;;;;;13.50;10.43;;;14.10;99.90;;;;;;5050873;28;20471;-49
2023/04/29 01:36:14;;;;;;;12.13;10.83;;;14.10;99.90;;;;;;5050718;28;20451;-49
2023/04/29 01:38:47;;;;;;;13.03;10.83;;;13.90;99.90;;;;;;5050488;28;20446;-50
2023/04/29 01:41:23;;;;;;;14.97;11.77;;;14.30;99.90;;;;;;5050839;28;20463;-49
2023/04/29 01:43:53;;;;;;;12.70;11.40;;;14.00;99.90;;;;;;5050676;28;20454;-49
2023/04/29 01:46:23;;;;;;;16.17;12.13;;;13.90;99.90;;;;;;5050524;28;20993;-49
2023/04/29 01:48:53;;;;;;;13.00;10.10;;;13.50;99.90;;;;;;5050089;28;20499;-49
2023/04/29 01:51:20;;;;;;;12.10;10.77;;;14.00;99.90;;;;;;5050183;28;20860;-49
2023/04/29 01:53:48;;;;;;;13.10;10.93;;;13.90;99.90;;;;;;5051047;28;20861;-49
2023/04/29 01:56:14;;;;;;;12.50;10.43;;;13.40;99.90;;;;;;5050411;28;20455;-49
2023/04/29 01:59:00;;;;;;;14.07;11.57;;;14.30;99.90;;;;;;5050149;28;20443;-49
2023/04/29 02:01:27;;;;;;;12.33;11.00;;;13.90;99.90;;;;;;5051594;28;20636;-49
2023/04/29 02:03:53;;;;;;;12.43;10.57;;;13.90;99.90;;;;;;5050383;28;20417;-48
2023/04/29 02:06:20;;;;;;;13.80;11.40;;;13.90;99.90;;;;;;5050354;28;20470;-50
2023/04/29 02:08:52;;;;;;;12.60;11.23;;;13.80;99.90;;;;;;5049971;28;20774;-48
2023/04/29 02:11:19;;;;;;;15.63;12.43;;;13.80;99.90;;;;;;5050260;28;20547;-49
2023/04/29 02:13:47;;;;;;;12.77;11.00;;;14.00;99.90;;;;;;5050472;28;20450;-49
2023/04/29 02:16:16;;;;;;;14.57;12.20;;;14.20;99.90;;;;;;5050173;28;20516;-48
2023/04/29 02:18:58;;;;;;;12.30;11.10;;;14.10;99.90;;;;;;5049950;28;20443;-48
2023/04/29 02:21:25;;;;;;;15.20;13.20;;;14.10;99.90;;;;;;5050150;28;20429;-49
2023/04/29 02:23:53;;;;;;;14.50;12.70;;;13.70;99.90;;;;;;5050337;28;20430;-48
2023/04/29 02:26:23;;;;;;;12.83;11.53;;;14.10;99.90;;;;;;5050105;28;20570;-49
2023/04/29 02:28:51;;;;;;;14.40;13.00;;;14.20;99.90;;;;;;5049718;28;20450;-48
2023/04/29 02:31:19;;;;;;;13.23;12.00;;;14.00;99.90;;;;;;5051342;28;20412;-48
2023/04/29 02:33:48;;;;;;;14.47;13.17;;;13.90;99.90;;;;;;5050224;28;20422;-49
2023/04/29 02:36:14;;;;;;;13.87;12.50;;;13.80;99.90;;;;;;5051354;28;20446;-48
2023/04/29 02:38:41;;;;;;;15.50;13.70;;;13.70;99.90;;;;;;5049939;28;20967;-48
2023/04/29 02:41:07;;;;;;;15.10;13.30;;;13.90;99.90;;;;;;5051476;28;20430;-48
2023/04/29 02:43:34;;;;;;;13.60;12.30;;;13.20;99.90;;;;;;5053646;28;20875;-48
2023/04/29 02:46:01;;;;;;;17.17;14.80;;;13.70;99.90;;;;;;5053773;28;20482;-48
2023/04/29 02:48:29;;;;;;;17.60;13.43;;;13.70;99.90;;;;;;5053374;28;20998;-48
2023/04/29 02:50:56;;;;;;;15.23;13.63;;;14.00;99.90;;;;;;5053605;28;20456;-48
2023/04/29 02:53:22;;;;;;;14.70;13.20;;;13.90;99.90;;;;;;5053464;28;20488;-49
2023/04/29 02:55:49;;;;;;;14.77;13.47;;;13.90;99.90;;;;;;5053645;28;20457;-49
2023/04/29 02:58:16;;;;;;;17.60;14.83;;;13.70;99.90;;;;;;5053306;28;20509;-49
2023/04/29 03:00:42;;;;;;;15.90;13.73;;;14.00;99.90;;;;;;5053883;28;20457;-49
2023/04/29 03:03:09;;;;;;;20.17;14.40;;;14.10;99.90;;;;;;5054914;28;20546;-49
2023/04/29 03:05:37;;;;;;;14.47;12.83;;;14.20;99.90;;;;;;5054739;28;20493;-50
2023/04/29 03:08:04;;;;;;;15.03;13.53;;;14.00;99.90;;;;;;5054930;28;20397;-49
2023/04/29 03:10:31;;;;;;;16.10;14.23;;;13.80;99.90;;;;;;5053496;28;20421;-49
2023/04/29 03:12:58;;;;;;;17.50;15.70;;;13.40;99.90;;;;;;5053556;28;20505;-49
2023/04/29 03:15:25;;;;;;;16.13;14.57;;;13.70;99.90;;;;;;5054547;28;20430;-48
2023/04/29 03:17:51;;;;;;;17.37;15.67;;;14.20;99.90;;;;;;5053102;28;20449;-48
2023/04/29 03:20:18;;;;;;;16.57;14.97;;;14.20;99.90;;;;;;5054196;28;20524;-49
2023/04/29 03:22:46;;;;;;;19.20;17.27;;;13.70;99.90;;;;;;5053139;28;20470;-49
2023/04/29 03:25:13;;;;;;;17.63;15.83;;;14.00;99.90;;;;;;5054403;28;20981;-49
2023/04/29 03:27:39;;;;;;;19.87;17.87;;;13.50;99.90;;;;;;5054254;28;20459;-48
2023/04/29 03:30:08;;;;;;;20.77;17.23;;;13.70;99.90;;;;;;5052834;28;20548;-48
2023/04/29 03:32:38;;;;;;;21.30;17.03;;;13.60;99.90;;;;;;5052872;28;20468;-49
2023/04/29 03:35:06;;;;;;;19.80;17.77;;;13.60;99.90;;;;;;5054092;28;20455;-48
2023/04/29 03:37:39;;;;;;;21.40;19.17;;;13.60;99.90;;;;;;5052781;28;20534;-48
2023/04/29 03:40:21;;;;;;;19.57;17.77;;;13.60;99.90;;;;;;5052393;28;20529;-50
2023/04/29 03:42:48;;;;;;;20.37;18.17;;;13.20;99.90;;;;;;5052320;28;20492;-48
2023/04/29 03:45:16;;;;;;;19.07;17.23;;;13.40;99.90;;;;;;5052600;28;20951;-49
2023/04/29 03:47:43;;;;;;;21.43;19.23;;;13.50;99.90;;;;;;5053809;28;20556;-49
2023/04/29 03:50:10;;;;;;;20.90;18.70;;;13.60;99.90;;;;;;5052170;28;20518;-49
2023/04/29 03:52:38;;;;;;;21.03;18.73;;;13.70;99.90;;;;;;5052075;28;20481;-49
2023/04/29 03:55:10;;;;;;;23.43;21.13;;;13.50;99.90;;;;;;5052603;28;20448;-49
2023/04/29 03:57:38;;;;;;;21.17;18.80;;;14.00;99.90;;;;;;5052340;28;20433;-49
2023/04/29 04:00:06;;;;;;;21.20;18.93;;;14.00;99.90;;;;;;5052025;28;21012;-49
2023/04/29 04:02:40;;;;;;;21.03;19.13;;;13.50;99.90;;;;;;5053471;28;20444;-49
2023/04/29 04:05:07;;;;;;;21.70;19.70;;;13.50;99.90;;;;;;5052430;28;20480;-49
2023/04/29 04:07:34;;;;;;;23.00;20.57;;;13.60;99.90;;;;;;5053445;28;20500;-49
2023/04/29 04:10:23;;;;;;;24.37;19.87;;;14.00;99.90;;;;;;5053057;28;20442;-49
2023/04/29 04:12:51;;;;;;;22.53;20.30;;;13.80;99.90;;;;;;5052226;28;20484;-49
2023/04/29 04:15:18;;;;;;;22.90;20.53;;;13.90;99.90;;;;;;5052084;28;20448;-49
2023/04/29 04:17:45;;;;;;;33.33;28.40;;;14.00;99.90;;;;;;5053280;28;20436;-49
2023/04/29 04:20:12;;;;;;;25.90;23.30;;;13.20;99.90;;;;;;5051739;28;20497;-48
2023/04/29 04:22:39;;;;;;;25.70;23.20;;;13.90;99.90;;;;;;5052130;28;20568;-49
2023/04/29 04:25:19;;;;;;;24.37;21.97;;;13.60;99.90;;;;;;5052219;28;20457;-49
2023/04/29 04:27:46;;;;;;;31.40;24.00;;;13.50;99.90;;;;;;5051912;28;20477;-49
2023/04/29 04:30:23;;;;;;;26.90;24.00;;;13.70;99.90;;;;;;5051714;28;20457;-48
2023/04/29 04:32:50;;;;;;;31.53;24.53;;;13.80;99.90;;;;;;5053071;28;20833;-47
2023/04/29 04:35:17;;;;;;;28.60;25.57;;;13.80;99.90;;;;;;5051944;28;20469;-48
2023/04/29 04:37:43;;;;;;;28.00;23.97;;;14.20;99.90;;;;;;5051911;28;20487;-48
2023/04/29 04:40:12;;;;;;;27.60;24.83;;;14.10;99.90;;;;;;5051362;28;20966;-49
2023/04/29 04:42:57;;;;;;;28.10;25.10;;;13.90;99.90;;;;;;5051371;28;20452;-49
2023/04/29 04:45:25;;;;;;;26.57;23.67;;;13.90;99.90;;;;;;5051578;28;21035;-49
2023/04/29 04:47:53;;;;;;;27.17;24.47;;;13.90;99.90;;;;;;5051356;28;20581;-49
2023/04/29 04:50:21;;;;;;;25.90;23.17;;;14.40;99.90;;;;;;5051031;28;20454;-50
2023/04/29 04:52:49;;;;;;;29.90;26.70;;;13.90;99.90;;;;;;5051183;28;20569;-49
2023/04/29 04:55:41;;;;;;;32.03;25.97;;;13.80;99.90;;;;;;5051201;28;20458;-50
2023/04/29 04:58:08;;;;;;;26.00;23.50;;;14.40;99.90;;;;;;5051010;28;20872;-50
2023/04/29 05:00:37;;;;;;;29.03;25.77;;;14.20;99.90;;;;;;5051187;28;20449;-49
2023/04/29 05:03:03;;;;;;;31.33;25.13;;;13.80;99.90;;;;;;5052334;28;20433;-49
2023/04/29 05:05:30;;;;;;;29.07;25.97;;;13.50;99.90;;;;;;5050523;28;20425;-49
2023/04/29 05:07:56;;;;;;;28.33;23.63;;;14.00;99.90;;;;;;5050811;28;20474;-48
2023/04/29 05:10:32;;;;;;;28.17;25.27;;;14.20;99.90;;;;;;5050881;28;20510;-49
2023/04/29 05:13:00;;;;;;;30.10;27.00;;;14.20;99.90;;;;;;5051359;28;20569;-48
2023/04/29 05:15:27;;;;;;;29.33;26.20;;;13.90;99.90;;;;;;5050846;28;20815;-49
2023/04/29 05:17:57;;;;;;;30.83;27.70;;;14.30;99.90;;;;;;5050944;28;20454;-49
2023/04/29 05:20:25;;;;;;;31.83;25.93;;;14.00;99.90;;;;;;5050648;28;20833;-49
2023/04/29 05:22:52;;;;;;;30.23;26.93;;;14.40;99.90;;;;;;5050601;28;20813;-49
2023/04/29 05:25:19;;;;;;;29.63;26.40;;;14.20;99.90;;;;;;5050634;28;20488;-49
2023/04/29 05:27:46;;;;;;;29.13;26.13;;;14.00;99.90;;;;;;5050762;28;20528;-49
2023/04/29 05:30:17;;;;;;;33.80;26.80;;;14.60;99.90;;;;;;5050327;28;20504;-49
2023/04/29 05:32:44;;;;;;;29.77;26.50;;;14.50;99.90;;;;;;5050802;28;20467;-49
2023/04/29 05:35:15;;;;;;;30.50;26.67;;;14.10;99.90;;;;;;5050686;28;20605;-49
2023/04/29 05:37:43;;;;;;;29.90;26.70;;;14.10;99.90;;;;;;5050615;28;20454;-49
2023/04/29 05:40:22;;;;;;;27.53;24.33;;;14.60;99.90;;;;;;5050450;28;20453;-49
2023/04/29 05:42:49;;;;;;;27.90;25.00;;;14.30;99.90;;;;;;5050712;28;20817;-49
2023/04/29 05:45:15;;;;;;;30.97;26.93;;;14.20;99.90;;;;;;5051719;28;20426;-49
2023/04/29 05:47:42;;;;;;;27.80;25.00;;;14.10;99.90;;;;;;5050274;28;20991;-49
2023/04/29 05:50:10;;;;;;;25.97;23.30;;;14.10;99.90;;;;;;5050259;28;20450;-49
2023/04/29 05:52:38;;;;;;;27.87;24.90;;;13.90;99.90;;;;;;5051455;28;20484;-48
2023/04/29 05:55:05;;;;;;;24.43;21.77;;;14.40;99.90;;;;;;5050265;28;20871;-48
2023/04/29 05:57:32;;;;;;;23.47;20.17;;;14.20;99.90;;;;;;5050548;28;20492;-49
2023/04/29 05:59:59;;;;;;;23.97;20.27;;;14.40;99.90;;;;;;5051286;28;20433;-49
2023/04/29 06:02:26;;;;;;;23.00;20.60;;;14.30;99.90;;;;;;5050294;28;20463;-48
2023/04/29 06:04:52;;;;;;;23.77;21.17;;;14.10;99.90;;;;;;5050215;28;20553;-49
2023/04/29 06:07:41;;;;;;;24.33;21.87;;;14.20;99.90;;;;;;5050436;28;20476;-49
2023/04/29 06:10:24;;;;;;;26.10;22.87;;;14.50;99.90;;;;;;5051522;28;20483;-49
2023/04/29 06:12:51;;;;;;;25.77;23.07;;;13.90;99.90;;;;;;5050295;28;21016;-50
2023/04/29 06:15:18;;;;;;;28.53;23.37;;;13.90;99.90;;;;;;5052158;28;20491;-49
2023/04/29 06:17:45;;;;;;;28.57;23.73;;;14.20;99.90;;;;;;5054265;28;20455;-49
2023/04/29 06:20:12;;;;;;;27.00;22.73;;;14.50;99.90;;;;;;5055125;28;20918;-49
2023/04/29 06:22:40;;;;;;;27.00;23.33;;;14.50;99.90;;;;;;5055312;28;20460;-48
2023/04/29 06:25:08;;;;;;;24.10;21.30;;;14.00;99.90;;;;;;5054027;28;20508;-51
2023/04/29 06:27:44;;;;;;;25.57;22.23;;;14.20;99.90;;;;;;5054304;28;20571;-48
2023/04/29 06:30:11;;;;;;;27.30;23.73;;;14.40;99.90;;;;;;5053643;28;20840;-49
2023/04/29 06:32:39;;;;;;;26.30;23.23;;;14.20;99.90;;;;;;5053766;28;20485;-48
2023/04/29 06:35:07;;;;;;;26.67;22.90;;;14.30;99.90;;;;;;5053852;28;20561;-49
2023/04/29 06:37:55;;;;;;;27.73;24.47;;;14.30;99.90;;;;;;5053652;28;20442;-48
2023/04/29 06:40:36;;;;;;;27.97;22.90;;;14.30;99.90;;;;;;5053884;28;20784;-49
2023/04/29 06:43:08;;;;;;;23.70;21.30;;;13.90;99.90;;;;;;5053805;28;20466;-49
2023/04/29 06:45:49;;;;;;;25.33;20.40;;;14.30;99.90;;;;;;5053788;28;20548;-49
2023/04/29 06:48:21;;;;;;;25.40;21.70;;;13.80;99.90;;;;;;5052759;28;20499;-48
2023/04/29 06:50:50;;;;;;;22.43;20.07;;;14.20;99.90;;;;;;5053633;28;20512;-48
2023/04/29 06:53:18;;;;;;;21.27;18.97;;;14.10;99.90;;;;;;5054551;28;20484;-49
2023/04/29 06:55:45;;;;;;;22.33;19.93;;;14.20;99.90;;;;;;5053547;28;20420;-48
2023/04/29 06:58:13;;;;;;;21.13;18.83;;;13.70;99.90;;;;;;5053500;28;20432;-49
2023/04/29 07:00:40;;;;;;;19.50;17.43;;;14.00;99.90;;;;;;5054765;28;20788;-49
2023/04/29 07:03:07;;;;;;;20.23;17.47;;;14.40;99.90;;;;;;5053147;28;20445;-48
2023/04/29 07:05:35;;;;;;;22.77;17.87;;;14.30;99.90;;;;;;5054453;28;20397;-48
2023/04/29 07:08:02;;;;;;;20.77;18.60;;;14.40;99.90;;;;;;5053081;28;20451;-48
2023/04/29 07:10:30;;;;;;;23.00;18.73;;;14.30;99.90;;;;;;5053123;28;20457;-48
2023/04/29 07:12:56;;;;;;;20.60;18.50;;;14.40;99.90;;;;;;5052910;28;20486;-49
2023/04/29 07:15:23;;;;;;;21.43;19.03;;;13.80;99.90;;;;;;5054283;28;20935;-49
2023/04/29 07:17:50;;;;;;;22.10;18.90;;;14.00;99.90;;;;;;5054363;28;20520;-49
2023/04/29 07:20:17;;;;;;;24.73;18.90;;;13.90;99.90;;;;;;5053804;28;20463;-49
2023/04/29 07:22:44;;;;;;;21.77;18.73;;;13.90;99.90;;;;;;5052785;28;20477;-49
2023/04/29 07:25:11;;;;;;;22.33;18.30;;;14.00;99.90;;;;;;5054141;28;20462;-49
2023/04/29 07:27:39;;;;;;;21.73;17.47;;;13.90;99.90;;;;;;5051756;28;20452;-50
2023/04/29 07:30:07;;;;;;;21.00;16.90;;;14.00;99.90;;;;;;5053761;28;20945;-49
2023/04/29 07:32:34;;;;;;;22.50;18.37;;;13.90;99.90;;;;;;5054128;28;20449;-49
2023/04/29 07:35:04;;;;;;;20.60;18.40;;;13.80;99.90;;;;;;5052714;28;20432;-49
2023/04/29 07:37:30;;;;;;;23.53;18.53;;;13.80;99.90;;;;;;5052548;28;20450;-48
2023/04/29 07:39:57;;;;;;;21.73;19.43;;;13.90;99.90;;;;;;5052344;28;20539;-49
2023/04/29 07:42:24;;;;;;;20.47;18.37;;;13.80;99.90;;;;;;5052732;28;20481;-49
2023/04/29 07:44:52;;;;;;;21.53;17.40;;;13.80;99.90;;;;;;5052842;28;20516;-49
2023/04/29 07:47:19;;;;;;;20.03;17.90;;;13.80;99.90;;;;;;5052398;28;20459;-48
2023/04/29 07:49:46;;;;;;;19.90;17.90;;;13.80;99.90;;;;;;5052188;28;20449;-48
2023/04/29 07:52:12;;;;;;;19.47;17.43;;;13.80;99.90;;;;;;5054052;28;20448;-50
2023/04/29 07:54:39;;;;;;;18.70;16.80;;;13.60;99.90;;;;;;5054059;28;20407;-50
2023/04/29 07:57:05;;;;;;;19.20;17.40;;;13.50;99.90;;;;;;5053537;28;20495;-51
2023/04/29 07:59:32;;;;;;;16.63;15.03;;;13.90;99.90;;;;;;5051361;28;20447;-50
2023/04/29 08:02:00;;;;;;;19.77;15.43;;;14.20;99.90;;;;;;5052028;28;20555;-51
2023/04/29 08:04:27;;;;;;;16.73;15.13;;;13.30;99.90;;;;;;5052115;28;20499;-51
2023/04/29 08:07:03;;;;;;;16.27;14.53;;;13.30;99.90;;;;;;5051804;28;20551;-51
2023/04/29 08:09:30;;;;;;;16.37;14.77;;;13.70;99.90;;;;;;5051408;28;20454;-52
2023/04/29 08:11:57;;;;;;;16.23;14.77;;;13.80;99.90;;;;;;5051791;28;20460;-51
2023/04/29 08:14:23;;;;;;;16.03;14.33;;;13.20;99.90;;;;;;5053171;28;20964;-49
2023/04/29 08:16:50;;;;;;;17.43;15.00;;;13.60;99.90;;;;;;5052626;28;20496;-51
2023/04/29 08:19:18;;;;;;;17.50;15.80;;;13.40;99.90;;;;;;5052842;28;20441;-51
2023/04/29 08:21:44;;;;;;;16.60;14.97;;;13.70;99.90;;;;;;5051843;28;20465;-50
2023/04/29 08:24:11;;;;;;;16.77;15.17;;;13.30;99.90;;;;;;5052927;28;20436;-51
2023/04/29 08:26:39;;;;;;;15.13;13.00;;;13.50;99.90;;;;;;5052929;28;20443;-51
2023/04/29 08:29:06;;;;;;;16.60;15.00;;;13.90;99.90;;;;;;5052486;28;20481;-50
2023/04/29 08:31:33;;;;;;;15.03;13.63;;;13.30;99.90;;;;;;5051118;28;20416;-51
2023/04/29 08:34:00;;;;;;;14.50;12.23;;;13.20;99.90;;;;;;5052739;28;20491;-50
2023/04/29 08:36:28;;;;;;;15.40;13.80;;;13.40;99.90;;;;;;5052055;28;20535;-50
2023/04/29 08:38:55;;;;;;;14.30;13.00;;;13.50;99.90;;;;;;5051451;28;20540;-50
2023/04/29 08:41:22;;;;;;;16.67;15.07;;;13.40;99.90;;;;;;5052404;28;20403;-50
2023/04/29 08:43:48;;;;;;;17.40;15.70;;;13.40;99.90;;;;;;5052544;28;20441;-51
2023/04/29 08:46:16;;;;;;;17.00;15.30;;;13.80;99.90;;;;;;5052347;28;20418;-51
2023/04/29 08:48:43;;;;;;;17.90;16.20;;;13.40;99.90;;;;;;5052217;28;20527;-51
2023/04/29 08:51:12;;;;;;;17.20;15.50;;;13.30;99.90;;;;;;5052257;28;20813;-51
2023/04/29 08:53:40;;;;;;;16.67;15.07;;;13.40;99.90;;;;;;5052498;28;20534;-51
2023/04/29 08:56:15;;;;;;;19.27;17.27;;;13.30;99.90;;;;;;5052170;28;20956;-50
2023/04/29 08:58:43;;;;;;;18.63;16.93;;;13.00;99.90;;;;;;5050097;28;20519;-51
2023/04/29 09:01:10;;;;;;;17.53;15.90;;;13.20;99.90;;;;;;5052473;28;20411;-51
2023/04/29 09:03:44;;;;;;;21.37;19.03;;;13.40;99.90;;;;;;5051854;28;20462;-52
2023/04/29 09:06:11;;;;;;;20.40;18.20;;;12.90;99.90;;;;;;5052308;28;20466;-51
2023/04/29 09:08:40;;;;;;;23.53;21.10;;;13.00;99.90;;;;;;5051899;28;20477;-51
2023/04/29 09:11:09;;;;;;;22.23;19.33;;;13.20;99.90;;;;;;5052198;28;20477;-51
2023/04/29 09:13:35;;;;;;;25.23;21.27;;;12.80;99.90;;;;;;5052104;28;20554;-51
2023/04/29 09:16:02;;;;;;;24.80;20.20;;;12.90;99.90;;;;;;5051884;28;20428;-50
2023/04/29 09:18:46;;;;;;;25.33;21.70;;;12.70;99.90;;;;;;5050410;28;20472;-51
2023/04/29 09:21:14;;;;;;;27.40;21.63;;;12.60;99.90;;;;;;5051907;28;20404;-50
2023/04/29 09:23:42;;;;;;;36.07;25.80;;;12.70;99.90;;;;;;5050126;28;20531;-50
2023/04/29 09:26:09;;;;;;;31.80;24.27;;;12.70;99.90;;;;;;5051760;28;20439;-50
2023/04/29 09:28:35;;;;;;;29.10;23.80;;;12.40;99.90;;;;;;5051304;28;20950;-50
2023/04/29 09:31:05;;;;;;;28.40;25.27;;;12.60;99.90;;;;;;5051799;28;20460;-52
2023/04/29 09:33:31;;;;;;;28.43;22.77;;;12.00;99.90;;;;;;5051609;28;20460;-50
2023/04/29 09:35:59;;;;;;;29.63;26.43;;;12.00;99.90;;;;;;5051916;28;20464;-51
2023/04/29 09:38:26;;;;;;;29.70;25.00;;;12.40;99.90;;;;;;5051118;28;20449;-51
2023/04/29 09:40:55;;;;;;;32.33;24.80;;;12.80;99.90;;;;;;5051871;28;20764;-51
2023/04/29 09:43:22;;;;;;;32.80;26.27;;;12.60;99.90;;;;;;5051567;28;20506;-51
2023/04/29 09:45:49;;;;;;;33.63;26.00;;;12.70;99.90;;;;;;5051492;28;20947;-51
2023/04/29 09:48:16;;;;;;;31.87;26.90;;;12.60;99.90;;;;;;5051042;28;20445;-51
2023/04/29 09:50:45;;;;;;;31.90;26.47;;;12.50;99.90;;;;;;5051381;28;20525;-51
2023/04/29 09:53:28;;;;;;;37.90;28.03;;;12.70;99.90;;;;;;5051526;28;20525;-51
2023/04/29 09:56:00;;;;;;;41.00;30.70;;;12.60;99.90;;;;;;5051084;28;20432;-51
2023/04/29 09:58:29;;;;;;;41.87;32.27;;;12.30;99.90;;;;;;5051098;28;20436;-51
2023/04/29 10:00:58;;;;;;;43.60;34.13;;;12.90;99.90;;;;;;5050145;28;20768;-50
2023/04/29 10:03:26;;;;;;;45.20;35.43;;;12.80;99.90;;;;;;5051438;28;20495;-51
2023/04/29 10:05:54;;;;;;;45.27;35.70;;;12.90;99.90;;;;;;5051113;28;20953;-50
2023/04/29 10:08:21;;;;;;;43.90;34.53;;;12.90;99.90;;;;;;5050532;28;20472;-51
2023/04/29 10:10:48;;;;;;;44.90;36.50;;;12.60;99.90;;;;;;5051052;28;20472;-51
2023/04/29 10:13:16;;;;;;;45.23;37.13;;;12.30;99.90;;;;;;5050841;28;20474;-51
2023/04/29 10:15:55;;;;;;;46.13;36.73;;;12.60;99.90;;;;;;5051029;28;20442;-50
2023/04/29 10:18:23;;;;;;;48.10;37.40;;;12.50;99.90;;;;;;5051019;28;20939;-51
2023/04/29 10:20:51;;;;;;;44.73;37.40;;;12.80;99.90;;;;;;5050926;28;20406;-50
2023/04/29 10:23:21;;;;;;;45.07;36.80;;;13.10;99.90;;;;;;5051208;28;20458;-50
2023/04/29 10:25:50;;;;;;;47.67;37.30;;;12.50;99.90;;;;;;5051544;28;20438;-51
2023/04/29 10:28:19;;;;;;;43.83;36.30;;;12.60;99.90;;;;;;5050722;28;20598;-51
2023/04/29 10:30:51;;;;;;;40.30;35.27;;;12.70;99.90;;;;;;5051054;28;20443;-51
2023/04/29 10:33:18;;;;;;;39.13;33.40;;;12.50;99.90;;;;;;5050959;28;20509;-51
2023/04/29 10:35:48;;;;;;;40.77;34.37;;;12.70;99.90;;;;;;5051122;28;20411;-50
2023/04/29 10:38:22;;;;;;;44.80;36.13;;;12.20;99.90;;;;;;5050788;28;20796;-51
2023/04/29 10:40:51;;;;;;;42.40;35.40;;;13.10;99.90;;;;;;5051010;28;20468;-50
2023/04/29 10:43:24;;;;;;;37.53;33.40;;;13.10;99.90;;;;;;5049381;28;20501;-50
2023/04/29 10:46:10;;;;;;;40.50;35.43;;;12.80;99.90;;;;;;5050627;28;20436;-51
2023/04/29 10:48:37;;;;;;;41.23;34.27;;;13.00;99.90;;;;;;5050386;28;20462;-51
2023/04/29 10:51:04;;;;;;;35.47;31.67;;;12.90;99.90;;;;;;5049474;28;20506;-50
2023/04/29 10:53:31;;;;;;;33.50;29.97;;;12.90;99.90;;;;;;5050512;28;20474;-50
2023/04/29 10:56:04;;;;;;;34.40;30.17;;;13.30;99.90;;;;;;5050324;28;20412;-51
2023/04/29 10:58:41;;;;;;;34.80;31.40;;;13.60;99.90;;;;;;5050419;28;20515;-50
2023/04/29 11:01:11;;;;;;;35.00;31.20;;;13.00;99.90;;;;;;5050969;28;20440;-49
2023/04/29 11:03:49;;;;;;;33.93;30.47;;;13.10;99.90;;;;;;5052893;28;20494;-50
2023/04/29 11:06:16;;;;;;;34.27;30.13;;;13.10;99.90;;;;;;5054207;28;20481;-50
2023/04/29 11:08:43;;;;;;;30.53;27.20;;;13.50;99.90;;;;;;5053638;28;20477;-50
2023/04/29 11:11:10;;;;;;;28.50;25.70;;;13.40;99.90;;;;;;5054312;28;20486;-50
2023/04/29 11:13:40;;;;;;;30.83;27.53;;;13.60;99.90;;;;;;5053768;28;20460;-50
2023/04/29 11:16:08;;;;;;;30.10;27.10;;;13.50;99.90;;;;;;5054211;28;20427;-50
2023/04/29 11:18:36;;;;;;;28.83;25.93;;;14.00;99.90;;;;;;5053557;28;20433;-50
2023/04/29 11:21:15;;;;;;;31.90;26.10;;;13.80;99.90;;;;;;5054339;28;20469;-52
2023/04/29 11:23:43;;;;;;;27.33;24.83;;;13.90;99.90;;;;;;5054058;28;20440;-52
2023/04/29 11:26:10;;;;;;;26.10;23.60;;;13.80;99.90;;;;;;5053851;28;20520;-49
2023/04/29 11:28:38;;;;;;;28.40;25.50;;;13.90;99.90;;;;;;5053467;28;20485;-50
2023/04/29 11:31:07;;;;;;;25.77;22.00;;;14.40;99.90;;;;;;5054135;28;20434;-51
2023/04/29 11:33:34;;;;;;;25.70;23.07;;;14.30;99.90;;;;;;5053383;28;20478;-51
2023/04/29 11:36:01;;;;;;;22.93;20.83;;;14.30;99.90;;;;;;5053949;28;20441;-51
2023/04/29 11:38:29;;;;;;;22.23;20.03;;;14.90;99.90;;;;;;5053770;28;20780;-52
2023/04/29 11:40:55;;;;;;;22.50;19.90;;;14.70;99.90;;;;;;5054070;28;20639;-51
2023/04/29 11:43:23;;;;;;;23.47;21.20;;;14.50;99.90;;;;;;5053593;28;20570;-50
2023/04/29 11:45:52;;;;;;;23.27;21.03;;;14.70;99.90;;;;;;5053266;28;20445;-52
2023/04/29 11:48:19;;;;;;;19.83;18.00;;;14.70;99.90;;;;;;5053002;28;20417;-52
2023/04/29 11:50:47;;;;;;;20.13;18.00;;;15.00;99.90;;;;;;5053478;28;20401;-50
2023/04/29 11:53:13;;;;;;;22.13;20.03;;;15.20;99.90;;;;;;5053038;28;20562;-52
2023/04/29 11:55:42;;;;;;;19.27;17.03;;;15.10;99.90;;;;;;5051659;28;20447;-52
2023/04/29 11:58:09;;;;;;;20.83;17.83;;;15.20;99.90;;;;;;5052818;28;20524;-51
2023/04/29 12:00:36;;;;;;;19.87;17.23;;;15.00;99.90;;;;;;5053261;28;20453;-51
2023/04/29 12:03:08;;;;;;;20.07;16.87;;;15.30;99.90;;;;;;5053042;28;20461;-51
2023/04/29 12:05:34;;;;;;;17.33;15.37;;;15.30;99.90;;;;;;5052955;28;20462;-51
2023/04/29 12:08:01;;;;;;;17.10;15.40;;;14.70;99.90;;;;;;5053089;28;20442;-52
2023/04/29 12:10:28;;;;;;;17.87;16.07;;;15.10;99.90;;;;;;5053020;28;20482;-52
2023/04/29 12:12:55;;;;;;;18.67;16.83;;;15.00;99.90;;;;;;5053470;28;20458;-51
2023/04/29 12:15:22;;;;;;;17.77;15.60;;;14.40;99.90;;;;;;5052691;28;20434;-51
2023/04/29 12:17:49;;;;;;;16.53;14.77;;;14.80;99.90;;;;;;5052991;28;20919;-50
2023/04/29 12:20:17;;;;;;;17.10;15.50;;;14.80;99.90;;;;;;5052573;28;20790;-51
2023/04/29 12:22:44;;;;;;;18.07;15.93;;;15.10;99.90;;;;;;5052734;28;20489;-51
2023/04/29 12:25:11;;;;;;;16.30;14.60;;;14.50;99.90;;;;;;5052838;28;21013;-51
2023/04/29 12:27:41;;;;;;;17.23;15.60;;;14.70;99.90;;;;;;5052644;28;20457;-50
2023/04/29 12:30:09;;;;;;;19.20;17.03;;;14.50;99.90;;;;;;5051862;28;20502;-51
2023/04/29 12:32:36;;;;;;;18.93;16.53;;;15.00;99.90;;;;;;5052334;28;20970;-51
2023/04/29 12:35:03;;;;;;;17.87;15.30;;;15.50;99.90;;;;;;5052578;28;20447;-50
2023/04/29 12:37:31;;;;;;;19.90;14.43;;;15.20;99.90;;;;;;5052736;28;20530;-50